Time;durP1;ratioP1;P1;durP2;ratioP2;P2;SDS_P1;SDS_P2;PMS_P1;PMS_P2;Temp;Humidity;BMP_temperature;BMP_pressure;BME280_temperature;BME280_humidity;BME280_pressure;Samples;Min_cycle;Max_cycle;Signal;HPM_P1;HPM_P2
2021/03/28 00:01:33;;;;;;;7.07;6.00;;;2.90;74.90;;;;;;5167096;28;20545;-72
2021/03/28 00:04:09;;;;;;;6.90;6.20;;;2.90;74.50;;;;;;5166470;28;20683;-73
2021/03/28 00:06:49;;;;;;;7.60;6.85;;;2.90;74.50;;;;;;5166035;28;20042;-72
2021/03/28 00:09:33;;;;;;;;;;;2.90;74.50;;;;;;5165573;28;20065;-74
2021/03/28 00:12:19;;;;;;;8.95;6.43;;;2.90;74.50;;;;;;5164748;28;20024;-73
2021/03/28 00:15:08;;;;;;;8.00;6.93;;;2.90;74.60;;;;;;5161433;28;20124;-72
2021/03/28 00:17:50;;;;;;;7.88;6.60;;;2.90;74.70;;;;;;5166351;28;20062;-72
2021/03/28 00:20:29;;;;;;;10.23;7.47;;;2.80;74.70;;;;;;5181588;28;20107;-72
2021/03/28 00:23:07;;;;;;;7.65;6.30;;;2.70;75.00;;;;;;5167501;28;20105;-72
2021/03/28 00:25:50;;;;;;;7.05;6.25;;;2.70;75.40;;;;;;5163968;28;20042;-72
2021/03/28 00:28:25;;;;;;;7.32;6.60;;;2.60;75.70;;;;;;5164958;28;20042;-72
2021/03/28 00:31:10;;;;;;;7.53;6.72;;;2.50;75.60;;;;;;5178847;28;20456;-73
2021/03/28 00:33:46;;;;;;;7.40;6.70;;;2.50;75.80;;;;;;5164744;28;20410;-72
2021/03/28 00:36:29;;;;;;;7.05;6.35;;;2.50;75.50;;;;;;5165425;28;20050;-74
2021/03/28 00:39:05;;;;;;;7.38;6.68;;;2.60;74.90;;;;;;5163246;28;20447;-73
2021/03/28 00:41:42;;;;;;;9.52;6.35;;;2.50;74.60;;;;;;5166382;28;20073;-73
2021/03/28 00:44:18;;;;;;;8.70;7.03;;;2.50;74.70;;;;;;5164369;28;20056;-74
2021/03/28 00:46:50;;;;;;;7.85;7.05;;;2.50;74.70;;;;;;5164580;28;20089;-73
2021/03/28 00:49:33;;;;;;;7.32;6.15;;;2.40;74.50;;;;;;5165153;28;20069;-72
2021/03/28 00:52:21;;;;;;;9.20;6.20;;;2.40;74.00;;;;;;5164247;28;20046;-73
2021/03/28 00:54:58;;;;;;;8.68;6.28;;;2.50;73.80;;;;;;5163140;28;20044;-74
2021/03/28 00:58:00;;;;;;;8.27;6.65;;;2.50;73.90;;;;;;5183896;28;20050;-74
2021/03/28 01:01:08;;;;;;;9.73;6.78;;;2.50;74.00;;;;;;5180328;28;20675;-76
2021/03/28 01:04:07;;;;;;;7.53;6.78;;;2.40;73.90;;;;;;5183607;28;20792;-73
2021/03/28 01:06:48;;;;;;;7.63;6.82;;;2.30;74.30;;;;;;5181462;28;20613;-76
2021/03/28 01:09:56;;;;;;;8.10;6.82;;;2.30;74.60;;;;;;5184359;28;20088;-74
2021/03/28 01:13:05;;;;;;;7.60;6.90;;;2.30;74.50;;;;;;5184229;28;20057;-73
2021/03/28 01:16:14;;;;;;;8.30;7.10;;;2.40;74.40;;;;;;5179247;28;20053;-74
2021/03/28 01:19:06;;;;;;;7.60;6.80;;;2.50;74.60;;;;;;5163396;28;20104;-73
2021/03/28 01:22:03;;;;;;;7.35;6.65;;;2.50;74.10;;;;;;5166203;28;20141;-73
2021/03/28 01:24:49;;;;;;;8.10;7.40;;;2.40;73.90;;;;;;5162730;28;20038;-75
2021/03/28 01:27:45;;;;;;;8.05;7.30;;;2.40;73.90;;;;;;5166211;28;20231;-73
2021/03/28 01:30:23;;;;;;;7.88;7.18;;;2.30;74.70;;;;;;5166959;28;20665;-73
2021/03/28 01:33:00;;;;;;;8.60;7.68;;;2.20;74.40;;;;;;5168230;28;20065;-74
2021/03/28 01:36:03;;;;;;;8.27;7.18;;;2.20;74.50;;;;;;5163944;28;20140;-71
2021/03/28 01:38:43;;;;;;;8.27;7.50;;;2.10;75.00;;;;;;5185399;28;20073;-73
2021/03/28 01:41:23;;;;;;;8.40;7.60;;;2.10;75.60;;;;;;5168400;28;20388;-72
2021/03/28 01:44:14;;;;;;;9.48;7.22;;;2.10;75.40;;;;;;5168490;28;20038;-74
2021/03/28 01:46:56;;;;;;;8.18;7.32;;;2.00;75.10;;;;;;5167008;28;20042;-72
2021/03/28 01:50:03;;;;;;;7.82;7.03;;;1.90;75.20;;;;;;5169997;28;20121;-72
2021/03/28 01:52:44;;;;;;;9.02;6.80;;;1.80;76.30;;;;;;5163731;28;20058;-72
2021/03/28 01:55:31;;;;;;;7.43;6.72;;;1.80;75.20;;;;;;5167126;28;20541;-73
2021/03/28 01:58:23;;;;;;;8.40;7.38;;;1.70;75.30;;;;;;5168940;28;20046;-74
2021/03/28 02:01:11;;;;;;;11.90;7.50;;;1.60;75.40;;;;;;5165754;28;20127;-73
2021/03/28 02:04:03;;;;;;;7.78;6.80;;;1.60;75.00;;;;;;5167477;28;20544;-72
2021/03/28 02:07:04;;;;;;;9.02;6.90;;;1.60;74.60;;;;;;5167688;28;20129;-72
2021/03/28 02:09:50;;;;;;;7.75;7.05;;;1.60;74.10;;;;;;5169643;28;20510;-73
2021/03/28 02:12:33;;;;;;;10.27;7.18;;;1.60;73.90;;;;;;5161644;28;20500;-73
2021/03/28 02:15:44;;;;;;;9.73;8.20;;;1.70;74.20;;;;;;5168117;28;20112;-73
2021/03/28 02:18:38;;;;;;;8.57;7.70;;;1.80;74.30;;;;;;5154629;28;20140;-72
2021/03/28 02:21:16;;;;;;;7.95;7.15;;;1.70;74.70;;;;;;5166838;28;20074;-73
2021/03/28 02:23:51;;;;;;;8.15;6.90;;;1.50;74.90;;;;;;5169188;28;20152;-71
2021/03/28 02:26:46;;;;;;;8.65;7.20;;;1.30;75.40;;;;;;5179280;28;20046;-70
2021/03/28 02:29:28;;;;;;;8.05;7.25;;;1.30;75.70;;;;;;5166548;28;20124;-73
2021/03/28 02:32:39;;;;;;;7.70;6.97;;;1.20;76.00;;;;;;5178510;28;20049;-72
2021/03/28 02:35:36;;;;;;;8.93;7.07;;;1.20;76.10;;;;;;5184635;28;20091;-72
2021/03/28 02:38:32;;;;;;;10.75;7.18;;;1.10;76.10;;;;;;5186267;28;20041;-71
2021/03/28 02:41:18;;;;;;;8.40;7.57;;;1.10;76.10;;;;;;5187898;28;20039;-75
2021/03/28 02:44:15;;;;;;;7.95;6.65;;;1.10;76.20;;;;;;5164961;28;20061;-72
2021/03/28 02:47:10;;;;;;;9.40;7.00;;;1.00;76.20;;;;;;5166732;28;20097;-72
2021/03/28 02:50:07;;;;;;;7.72;6.60;;;1.10;76.00;;;;;;5181649;28;20127;-73
2021/03/28 02:52:53;;;;;;;7.20;6.50;;;1.00;75.50;;;;;;5163733;28;20093;-74
2021/03/28 02:56:03;;;;;;;8.50;7.07;;;1.00;75.70;;;;;;5168321;28;20046;-73
2021/03/28 02:59:20;;;;;;;8.23;7.32;;;1.10;75.80;;;;;;5167566;28;20176;-74
2021/03/28 03:02:13;;;;;;;7.60;6.80;;;1.10;75.50;;;;;;5167142;28;20710;-73
2021/03/28 03:05:10;;;;;;;7.65;6.90;;;1.10;74.80;;;;;;5165053;28;20066;-74
2021/03/28 03:07:45;;;;;;;8.25;7.35;;;1.20;74.30;;;;;;5163892;28;20042;-73
2021/03/28 03:10:53;;;;;;;8.70;7.10;;;1.30;76.50;;;;;;5158719;28;20419;-73
2021/03/28 03:13:46;;;;;;;7.70;6.65;;;1.30;76.40;;;;;;5162624;28;20144;-72
2021/03/28 03:16:47;;;;;;;8.10;7.30;;;1.30;75.70;;;;;;5164504;28;20058;-75
2021/03/28 03:19:29;;;;;;;;;;;1.40;75.50;;;;;;5166227;28;20073;-74
2021/03/28 03:22:33;;;;;;;10.68;7.53;;;1.30;75.30;;;;;;5164643;28;20061;-73
2021/03/28 03:25:43;;;;;;;9.40;6.78;;;1.40;75.50;;;;;;5167770;28;20132;-73
2021/03/28 03:28:53;;;;;;;9.25;7.35;;;1.20;74.40;;;;;;5164144;28;20100;-75
2021/03/28 03:32:09;;;;;;;7.75;7.05;;;1.10;74.80;;;;;;5165786;28;20039;-73
2021/03/28 03:35:10;;;;;;;7.60;6.82;;;1.00;75.00;;;;;;5154655;28;20081;-73
2021/03/28 03:38:17;;;;;;;7.50;6.57;;;1.00;75.20;;;;;;5169164;28;20133;-73
2021/03/28 03:41:09;;;;;;;8.10;6.30;;;1.10;74.70;;;;;;5170757;28;20050;-73
2021/03/28 03:44:18;;;;;;;8.07;6.78;;;1.10;74.60;;;;;;5166491;28;20352;-72
2021/03/28 03:47:35;;;;;;;7.40;6.80;;;1.00;74.60;;;;;;5166621;28;20097;-73
2021/03/28 03:50:37;;;;;;;8.27;7.40;;;1.00;74.70;;;;;;5158713;28;20526;-69
2021/03/28 03:53:36;;;;;;;9.57;7.28;;;1.00;74.90;;;;;;5166748;28;20121;-72
2021/03/28 03:56:29;;;;;;;8.02;7.20;;;1.00;75.30;;;;;;5164658;28;20390;-72
2021/03/28 03:59:38;;;;;;;8.48;7.60;;;0.90;75.10;;;;;;5158253;28;20061;-72
2021/03/28 04:02:18;;;;;;;8.73;7.68;;;1.00;74.80;;;;;;5165399;28;20486;-73
2021/03/28 04:05:27;;;;;;;8.20;7.22;;;1.00;74.40;;;;;;5166718;28;20096;-73
2021/03/28 04:08:25;;;;;;;7.85;7.10;;;0.90;74.70;;;;;;5190298;28;20049;-72
2021/03/28 04:11:27;;;;;;;9.50;7.00;;;0.90;75.20;;;;;;5172987;28;20070;-73
2021/03/28 04:14:31;;;;;;;9.70;7.30;;;0.90;75.20;;;;;;5162972;28;20934;-72
2021/03/28 04:17:38;;;;;;;10.40;7.20;;;1.00;74.70;;;;;;5163708;28;20050;-73
2021/03/28 04:20:37;;;;;;;9.55;7.00;;;1.00;74.50;;;;;;5162985;28;20065;-71
2021/03/28 04:23:50;;;;;;;7.82;7.05;;;0.80;75.10;;;;;;5163777;28;20653;-71
2021/03/28 04:26:33;;;;;;;9.88;6.95;;;0.70;75.70;;;;;;5164741;28;20046;-71
2021/03/28 04:29:09;;;;;;;8.57;7.50;;;0.70;77.30;;;;;;5178380;28;20050;-72
2021/03/28 04:31:40;;;;;;;8.18;7.25;;;0.80;76.60;;;;;;5163426;28;20042;-72
2021/03/28 04:34:49;;;;;;;8.07;7.25;;;0.80;77.00;;;;;;5160459;28;20523;-71
2021/03/28 04:37:42;;;;;;;8.57;7.75;;;0.80;76.30;;;;;;5164921;28;20062;-73
2021/03/28 04:40:31;;;;;;;8.38;7.57;;;0.80;76.40;;;;;;5163803;28;20052;-71
2021/03/28 04:43:50;;;;;;;7.80;6.90;;;0.70;76.80;;;;;;5165290;28;20050;-72
2021/03/28 04:46:37;;;;;;;8.65;7.65;;;0.70;75.80;;;;;;5160031;28;20105;-69
2021/03/28 04:49:33;;;;;;;8.27;7.30;;;0.70;76.20;;;;;;5165634;28;20042;-69
2021/03/28 04:52:19;;;;;;;9.25;7.40;;;0.70;75.70;;;;;;5180309;28;20042;-70
2021/03/28 04:55:27;;;;;;;10.82;7.30;;;0.70;75.50;;;;;;5162709;28;20045;-70
2021/03/28 04:58:40;;;;;;;8.35;7.45;;;0.70;75.90;;;;;;5160736;28;20062;-70
2021/03/28 05:01:48;;;;;;;8.40;7.13;;;0.70;75.80;;;;;;5163230;28;20050;-70
2021/03/28 05:04:34;;;;;;;9.65;7.18;;;0.70;75.30;;;;;;5169403;28;20092;-69
2021/03/28 05:07:35;;;;;;;8.20;7.40;;;0.70;75.10;;;;;;5169268;28;20124;-69
2021/03/28 05:10:10;;;;;;;8.65;7.60;;;0.70;75.70;;;;;;5167224;28;20043;-67
2021/03/28 05:13:09;;;;;;;8.30;7.50;;;0.70;74.90;;;;;;5170020;28;20411;-69
2021/03/28 05:16:19;;;;;;;8.15;7.35;;;0.70;74.60;;;;;;5169635;28;20131;-69
2021/03/28 05:19:14;;;;;;;7.97;7.20;;;0.70;75.20;;;;;;5168042;28;20077;-71
2021/03/28 05:22:07;;;;;;;7.80;6.97;;;0.70;75.30;;;;;;5180990;28;20049;-69
2021/03/28 05:24:45;;;;;;;9.18;8.02;;;0.70;75.60;;;;;;5168709;28;20109;-69
2021/03/28 05:28:02;;;;;;;7.90;7.10;;;0.60;75.70;;;;;;5167039;28;20150;-72
2021/03/28 05:31:08;;;;;;;7.80;6.97;;;0.60;76.20;;;;;;5148852;28;20128;-71
2021/03/28 05:34:15;;;;;;;8.07;7.28;;;0.60;75.60;;;;;;5168717;28;20034;-69
2021/03/28 05:37:11;;;;;;;7.80;6.80;;;0.50;76.50;;;;;;5167991;28;20037;-71
2021/03/28 05:40:01;;;;;;;7.95;7.15;;;0.50;76.20;;;;;;5165090;28;20070;-70
2021/03/28 05:42:41;;;;;;;7.85;7.05;;;0.50;76.70;;;;;;5165047;28;20094;-72
2021/03/28 05:45:31;;;;;;;7.55;6.85;;;0.50;76.70;;;;;;5169522;28;20520;-70
2021/03/28 05:48:15;;;;;;;8.45;6.60;;;0.60;76.60;;;;;;5171591;28;20045;-73
2021/03/28 05:51:25;;;;;;;8.38;6.78;;;0.70;76.70;;;;;;5167862;28;20085;-73
2021/03/28 05:54:24;;;;;;;8.52;6.43;;;0.90;76.30;;;;;;5170225;28;20074;-70
2021/03/28 05:57:23;;;;;;;9.05;6.72;;;1.00;76.00;;;;;;5163837;28;20066;-74
2021/03/28 06:00:19;;;;;;;8.10;7.30;;;1.20;76.40;;;;;;5166756;28;20038;-70
2021/03/28 06:03:14;;;;;;;8.50;7.28;;;1.30;76.10;;;;;;5188341;28;20191;-71
2021/03/28 06:06:20;;;;;;;11.13;7.43;;;1.20;76.20;;;;;;5181458;28;20044;-70
2021/03/28 06:08:57;;;;;;;8.10;7.30;;;1.40;76.20;;;;;;5168302;28;20046;-71
2021/03/28 06:11:49;;;;;;;8.20;6.72;;;1.40;75.80;;;;;;5171088;28;20533;-70
2021/03/28 06:14:39;;;;;;;8.63;6.30;;;1.50;75.90;;;;;;5168637;28;20049;-70
2021/03/28 06:17:25;;;;;;;8.57;7.60;;;1.60;75.40;;;;;;5165281;28;20053;-74
2021/03/28 06:20:32;;;;;;;7.47;6.75;;;1.60;75.50;;;;;;5167936;28;21633;-71
2021/03/28 06:23:31;;;;;;;7.88;7.15;;;1.70;75.40;;;;;;5166122;28;20054;-71
2021/03/28 06:26:32;;;;;;;7.95;7.07;;;1.90;75.50;;;;;;5166014;28;20108;-71
2021/03/28 06:29:41;;;;;;;8.10;7.28;;;2.10;74.70;;;;;;5168889;28;20642;-72
2021/03/28 06:32:50;;;;;;;7.35;6.65;;;2.00;74.60;;;;;;5163919;28;20034;-69
2021/03/28 06:35:31;;;;;;;7.85;7.05;;;2.00;75.30;;;;;;5169211;28;20060;-71
2021/03/28 06:38:39;;;;;;;7.60;6.82;;;2.20;75.20;;;;;;5166362;28;20721;-72
2021/03/28 06:41:27;;;;;;;8.82;7.45;;;2.50;74.10;;;;;;5166598;28;20699;-71
2021/03/28 06:44:13;;;;;;;9.02;7.63;;;2.70;73.70;;;;;;5168429;28;20051;-70
2021/03/28 06:46:57;;;;;;;7.55;6.80;;;3.00;72.90;;;;;;5166400;28;20042;-73
2021/03/28 06:50:16;;;;;;;8.70;6.93;;;3.10;72.20;;;;;;5174652;28;20041;-69
2021/03/28 06:53:03;;;;;;;9.43;7.95;;;3.30;71.60;;;;;;5118892;28;20054;-70
2021/03/28 06:55:40;;;;;;;8.95;8.05;;;3.50;72.60;;;;;;5169466;28;20078;-70
2021/03/28 06:58:59;;;;;;;10.90;8.13;;;3.70;72.20;;;;;;5177755;28;20049;-69
2021/03/28 07:01:50;;;;;;;12.23;9.05;;;3.90;71.40;;;;;;5151341;28;20169;-72
2021/03/28 07:04:49;;;;;;;10.25;7.63;;;4.20;70.60;;;;;;5160710;28;20080;-69
2021/03/28 07:07:35;;;;;;;8.40;7.60;;;4.40;69.60;;;;;;5167339;28;20454;-69
2021/03/28 07:10:21;;;;;;;8.40;7.60;;;4.50;69.60;;;;;;5166952;28;20074;-69
2021/03/28 07:13:20;;;;;;;8.98;8.07;;;4.70;69.70;;;;;;5166735;28;20125;-69
2021/03/28 07:15:57;;;;;;;10.63;9.07;;;4.90;67.50;;;;;;5177802;28;20050;-70
2021/03/28 07:19:00;;;;;;;9.65;8.02;;;4.90;66.20;;;;;;5164053;28;20049;-70
2021/03/28 07:21:56;;;;;;;8.15;7.35;;;5.00;66.90;;;;;;5167013;28;20469;-72
2021/03/28 07:25:05;;;;;;;8.48;7.63;;;5.10;66.10;;;;;;5180543;28;20046;-70
2021/03/28 07:28:13;;;;;;;8.63;7.82;;;5.20;66.80;;;;;;5168118;28;20779;-70
2021/03/28 07:31:07;;;;;;;9.82;7.50;;;5.30;66.50;;;;;;5165900;28;20043;-72
2021/03/28 07:34:20;;;;;;;10.20;7.47;;;5.20;67.10;;;;;;5169380;28;20052;-71
2021/03/28 07:37:37;;;;;;;8.30;7.50;;;5.30;68.00;;;;;;5148214;28;20772;-70
2021/03/28 07:40:27;;;;;;;8.25;7.45;;;5.30;66.50;;;;;;5134792;28;20062;-70
2021/03/28 07:43:30;;;;;;;8.23;7.43;;;5.30;66.40;;;;;;5165663;28;20254;-71
2021/03/28 07:46:22;;;;;;;8.73;7.85;;;5.40;68.10;;;;;;5166625;28;20298;-70
2021/03/28 07:49:24;;;;;;;8.88;7.95;;;5.40;66.40;;;;;;5165035;28;20123;-69
2021/03/28 07:52:18;;;;;;;8.52;7.53;;;5.50;66.00;;;;;;5168690;28;20124;-70
2021/03/28 07:55:04;;;;;;;10.05;8.30;;;5.60;66.30;;;;;;5166744;28;20050;-71
2021/03/28 07:58:08;;;;;;;8.75;7.85;;;5.80;65.50;;;;;;5168674;28;20057;-70
2021/03/28 08:00:58;;;;;;;8.77;7.75;;;6.10;64.20;;;;;;5170899;28;20049;-71
2021/03/28 08:03:44;;;;;;;9.63;8.13;;;6.30;63.90;;;;;;5171080;28;20144;-70
2021/03/28 08:06:24;;;;;;;8.68;7.88;;;6.60;63.90;;;;;;5170005;28;20042;-69
2021/03/28 08:09:22;;;;;;;9.05;8.15;;;6.80;62.70;;;;;;5165830;28;20096;-71
2021/03/28 08:11:53;;;;;;;9.15;8.35;;;6.80;61.90;;;;;;5165541;28;20050;-68
2021/03/28 08:14:46;;;;;;;9.40;8.40;;;6.90;61.80;;;;;;5160751;28;20060;-69
2021/03/28 08:17:30;;;;;;;9.00;8.20;;;6.90;62.90;;;;;;5170111;28;20046;-68
2021/03/28 08:20:37;;;;;;;9.65;8.60;;;7.10;61.90;;;;;;5170591;28;20045;-69
2021/03/28 08:23:30;;;;;;;9.13;8.32;;;7.30;61.30;;;;;;5171174;28;20134;-68
2021/03/28 08:26:25;;;;;;;8.70;7.90;;;7.50;61.40;;;;;;5168134;28;20064;-68
2021/03/28 08:29:31;;;;;;;9.38;8.35;;;7.70;59.50;;;;;;5171326;28;20180;-68
2021/03/28 08:32:17;;;;;;;9.60;8.70;;;7.80;59.00;;;;;;5159791;28;20606;-70
2021/03/28 08:35:26;;;;;;;10.30;9.40;;;7.80;60.40;;;;;;5169427;28;20088;-69
2021/03/28 08:38:29;;;;;;;9.32;8.48;;;8.00;58.60;;;;;;5169400;28;20042;-67
2021/03/28 08:41:19;;;;;;;9.10;8.30;;;8.00;57.90;;;;;;5174015;28;20129;-67
2021/03/28 08:44:27;;;;;;;8.73;7.93;;;7.90;58.30;;;;;;5171944;28;20342;-68
2021/03/28 08:47:36;;;;;;;9.40;8.45;;;8.00;58.80;;;;;;5167758;28;20054;-67
2021/03/28 08:50:41;;;;;;;9.25;8.35;;;8.00;57.70;;;;;;5166377;28;20125;-68
2021/03/28 08:53:18;;;;;;;9.10;8.15;;;8.10;57.80;;;;;;5170539;28;20046;-68
2021/03/28 08:56:24;;;;;;;9.48;8.52;;;8.30;58.50;;;;;;5167430;28;20045;-68
2021/03/28 08:59:20;;;;;;;9.90;8.90;;;8.60;56.00;;;;;;5166930;28;20073;-69
2021/03/28 09:01:59;;;;;;;9.13;8.30;;;8.70;57.70;;;;;;5170709;28;20041;-69
2021/03/28 09:04:51;;;;;;;10.07;9.17;;;8.80;56.50;;;;;;5167177;28;20046;-70
2021/03/28 09:07:42;;;;;;;10.00;9.07;;;8.80;55.60;;;;;;5170018;28;20078;-69
2021/03/28 09:10:32;;;;;;;9.57;8.68;;;9.00;53.90;;;;;;5171706;28;20673;-70
2021/03/28 09:13:32;;;;;;;10.48;9.48;;;9.20;53.60;;;;;;5188369;28;20054;-71
2021/03/28 09:16:31;;;;;;;10.05;9.18;;;9.50;51.30;;;;;;5171999;28;20451;-69
2021/03/28 09:19:14;;;;;;;9.95;9.05;;;9.80;52.00;;;;;;5168686;28;20149;-70
2021/03/28 09:21:57;;;;;;;9.63;8.73;;;10.00;51.00;;;;;;5170570;28;20037;-69
2021/03/28 09:24:28;;;;;;;9.77;8.90;;;10.10;50.10;;;;;;5183742;28;20157;-68
2021/03/28 09:27:20;;;;;;;10.77;9.25;;;10.20;47.00;;;;;;5171009;28;20050;-70
2021/03/28 09:30:18;;;;;;;9.88;8.98;;;10.20;47.10;;;;;;5167664;28;20128;-69
2021/03/28 09:33:09;;;;;;;10.25;9.18;;;10.30;47.20;;;;;;5190559;28;20116;-69
2021/03/28 09:36:18;;;;;;;9.82;8.85;;;10.20;44.90;;;;;;5180955;28;20999;-70
2021/03/28 09:39:15;;;;;;;9.38;8.48;;;10.30;44.30;;;;;;5185969;28;20121;-69
2021/03/28 09:42:24;;;;;;;9.73;8.68;;;10.30;45.70;;;;;;5181691;28;20045;-69
2021/03/28 09:45:18;;;;;;;9.70;8.80;;;10.40;42.20;;;;;;5186713;28;20069;-69
2021/03/28 09:48:28;;;;;;;9.73;8.82;;;10.40;44.80;;;;;;5186962;28;20049;-69
2021/03/28 09:51:38;;;;;;;9.68;8.77;;;10.40;48.10;;;;;;5186811;28;20092;-70
2021/03/28 09:54:18;;;;;;;9.80;9.00;;;10.40;44.50;;;;;;5168407;28;20081;-70
2021/03/28 09:57:05;;;;;;;10.32;9.43;;;10.50;44.70;;;;;;5190846;28;20072;-72
2021/03/28 10:00:02;;;;;;;9.80;8.90;;;10.40;45.30;;;;;;5187903;28;20038;-70
2021/03/28 10:02:41;;;;;;;10.27;9.38;;;10.50;44.00;;;;;;5187131;28;20038;-71
2021/03/28 10:05:33;;;;;;;9.45;8.65;;;10.50;43.60;;;;;;5188314;28;20100;-71
2021/03/28 10:08:12;;;;;;;9.60;8.60;;;10.60;42.70;;;;;;5185681;28;20124;-71
2021/03/28 10:11:05;;;;;;;10.25;9.23;;;10.60;43.40;;;;;;5188971;28;20075;-70
2021/03/28 10:13:46;;;;;;;9.35;8.55;;;10.80;44.50;;;;;;5189959;28;20112;-70
2021/03/28 10:16:32;;;;;;;10.00;9.10;;;10.90;46.30;;;;;;5191352;28;20365;-71
2021/03/28 10:19:21;;;;;;;10.95;9.82;;;10.90;47.60;;;;;;5193392;28;20049;-71
2021/03/28 10:22:51;;;;;;;10.07;9.18;;;10.90;43.90;;;;;;5189236;28;20045;-71
2021/03/28 10:25:26;;;;;;;9.77;8.88;;;11.10;49.10;;;;;;5165326;28;20140;-71
2021/03/28 10:28:34;;;;;;;9.50;8.60;;;11.30;47.70;;;;;;5194216;28;20041;-70
2021/03/28 10:31:30;;;;;;;9.85;9.05;;;11.20;42.60;;;;;;5188766;28;20115;-71
2021/03/28 10:34:30;;;;;;;10.10;9.20;;;11.30;45.60;;;;;;5192181;28;20067;-72
2021/03/28 10:37:25;;;;;;;9.52;8.73;;;11.50;40.50;;;;;;5189181;28;20103;-72
2021/03/28 10:40:34;;;;;;;9.75;8.93;;;11.60;44.70;;;;;;5181294;28;20053;-71
2021/03/28 10:43:12;;;;;;;10.27;9.38;;;11.70;41.90;;;;;;5187992;28;20050;-71
2021/03/28 10:46:11;;;;;;;9.63;8.70;;;11.90;43.70;;;;;;5185916;28;20142;-70
2021/03/28 10:49:19;;;;;;;10.65;9.68;;;12.10;40.70;;;;;;5186444;28;20036;-71
2021/03/28 10:52:12;;;;;;;13.82;11.93;;;12.20;40.50;;;;;;5185004;28;20120;-72
2021/03/28 10:55:33;;;;;;;9.82;9.00;;;12.50;42.50;;;;;;5186884;28;20053;-70
2021/03/28 10:58:50;;;;;;;10.85;9.93;;;12.80;40.70;;;;;;5167838;28;20046;-72
2021/03/28 11:01:49;;;;;;;10.60;9.60;;;13.00;39.90;;;;;;5163240;28;20044;-71
2021/03/28 11:04:35;;;;;;;11.55;10.45;;;13.20;39.40;;;;;;5167522;28;20046;-71
2021/03/28 11:07:31;;;;;;;10.38;9.48;;;13.30;37.10;;;;;;5167031;28;20046;-71
2021/03/28 11:10:21;;;;;;;10.68;9.77;;;13.40;36.10;;;;;;5171798;28;20057;-71
2021/03/28 11:13:20;;;;;;;12.13;11.02;;;13.60;37.00;;;;;;5169238;28;20053;-71
2021/03/28 11:16:16;;;;;;;10.80;9.80;;;13.60;36.80;;;;;;5165105;28;20046;-72
2021/03/28 11:19:09;;;;;;;10.82;9.93;;;13.70;37.90;;;;;;5166579;28;20046;-72
2021/03/28 11:22:20;;;;;;;34.47;27.58;;;13.80;37.50;;;;;;5164909;28;20146;-71
2021/03/28 11:24:51;;;;;;;10.05;9.13;;;13.90;37.50;;;;;;5180648;28;20045;-71
2021/03/28 11:27:50;;;;;;;10.75;9.77;;;14.10;37.30;;;;;;5166605;28;20137;-71
2021/03/28 11:30:59;;;;;;;10.52;9.70;;;14.00;35.40;;;;;;5167951;28;20040;-71
2021/03/28 11:33:38;;;;;;;10.65;9.75;;;14.10;35.80;;;;;;5146278;28;20061;-71
2021/03/28 11:36:18;;;;;;;11.25;10.25;;;14.30;35.70;;;;;;5169508;28;20133;-71
2021/03/28 11:39:12;;;;;;;11.82;10.68;;;14.40;35.70;;;;;;5169571;28;20050;-73
2021/03/28 11:41:52;;;;;;;11.15;10.25;;;14.40;34.60;;;;;;5164385;28;20116;-73
2021/03/28 11:44:37;;;;;;;12.30;11.10;;;14.50;35.40;;;;;;5182207;28;20121;-71
2021/03/28 11:47:20;;;;;;;11.02;10.13;;;14.50;36.50;;;;;;5167383;28;20413;-71
2021/03/28 11:49:56;;;;;;;11.38;10.38;;;14.60;35.00;;;;;;5166594;28;20057;-70
2021/03/28 11:52:49;;;;;;;11.70;10.80;;;14.60;33.50;;;;;;5164676;28;20066;-71
2021/03/28 11:55:39;;;;;;;11.02;10.02;;;14.70;35.30;;;;;;5162543;28;20038;-72
2021/03/28 11:58:17;;;;;;;11.38;10.38;;;14.70;33.60;;;;;;5166004;28;20508;-71
2021/03/28 12:00:57;;;;;;;11.15;10.15;;;14.80;35.10;;;;;;5164451;28;20104;-73
2021/03/28 12:03:41;;;;;;;11.77;10.68;;;14.90;34.80;;;;;;5166471;28;20124;-71
2021/03/28 12:06:35;;;;;;;12.18;11.02;;;15.00;34.40;;;;;;5165476;28;20114;-72
2021/03/28 12:09:23;;;;;;;11.35;10.45;;;15.10;33.70;;;;;;5163058;28;20415;-71
2021/03/28 12:12:11;;;;;;;11.68;10.77;;;15.20;34.30;;;;;;5166826;28;20129;-73
2021/03/28 12:14:43;;;;;;;11.68;10.68;;;15.20;33.10;;;;;;5180707;28;20443;-73
2021/03/28 12:17:18;;;;;;;11.45;10.55;;;15.30;31.10;;;;;;5163071;28;20074;-72
2021/03/28 12:20:15;;;;;;;11.27;10.38;;;15.20;30.90;;;;;;5163594;28;20069;-71
2021/03/28 12:23:00;;;;;;;12.00;11.00;;;15.20;30.50;;;;;;5163920;28;20081;-73
2021/03/28 12:25:35;;;;;;;12.65;11.57;;;15.30;31.40;;;;;;5164744;28;20042;-73
2021/03/28 12:28:25;;;;;;;12.30;11.27;;;15.40;31.20;;;;;;5165497;28;20046;-71
2021/03/28 12:31:17;;;;;;;;;;;15.40;29.00;;;;;;5165201;28;20088;-71
2021/03/28 12:33:54;;;;;;;12.38;11.32;;;15.30;29.60;;;;;;5161441;28;20017;-71
2021/03/28 12:37:10;;;;;;;11.55;10.60;;;15.50;29.00;;;;;;5161305;28;20408;-71
2021/03/28 12:39:42;;;;;;;11.52;10.63;;;15.50;28.60;;;;;;5165325;28;20623;-68
2021/03/28 12:42:26;;;;;;;11.88;10.98;;;15.50;28.60;;;;;;5149220;28;20068;-67
2021/03/28 12:45:06;;;;;;;12.02;11.02;;;15.70;28.60;;;;;;5162879;28;20125;-67
2021/03/28 12:47:47;;;;;;;;;;;15.70;27.60;;;;;;5184507;28;20523;-67
2021/03/28 12:50:21;;;;;;;12.15;11.05;;;15.80;28.20;;;;;;5187212;28;19932;-68
2021/03/28 12:53:04;;;;;;;11.93;11.02;;;15.80;28.70;;;;;;5179180;28;20046;-67
2021/03/28 12:55:50;;;;;;;12.18;11.18;;;15.90;28.30;;;;;;5183406;28;20069;-67
2021/03/28 12:58:42;;;;;;;12.07;11.02;;;15.90;28.40;;;;;;5187319;28;20628;-67
2021/03/28 13:01:34;;;;;;;12.35;11.35;;;15.90;28.50;;;;;;5184409;28;20128;-68
2021/03/28 13:04:25;;;;;;;13.13;11.93;;;15.90;28.70;;;;;;5185547;28;20064;-67
2021/03/28 13:06:57;;;;;;;12.73;11.80;;;15.80;28.80;;;;;;5181249;28;20514;-67
2021/03/28 13:09:36;;;;;;;12.98;11.90;;;15.90;28.50;;;;;;5185739;28;20053;-68
2021/03/28 13:12:07;;;;;;;12.82;11.82;;;15.90;28.30;;;;;;5185990;28;21284;-67
2021/03/28 13:14:44;;;;;;;12.88;11.85;;;16.00;28.90;;;;;;5193911;28;20539;-67
2021/03/28 13:17:37;;;;;;;13.00;12.00;;;16.10;28.20;;;;;;5194348;28;20049;-67
2021/03/28 13:20:28;;;;;;;12.95;11.95;;;16.20;28.50;;;;;;5199422;28;20050;-66
2021/03/28 13:23:17;;;;;;;13.23;12.13;;;16.30;29.10;;;;;;5170952;28;20053;-67
2021/03/28 13:26:13;;;;;;;12.48;11.57;;;16.30;27.10;;;;;;5193706;28;20450;-68
2021/03/28 13:28:57;;;;;;;12.98;11.98;;;16.40;27.80;;;;;;5192820;28;20556;-68
2021/03/28 13:32:02;;;;;;;13.18;12.07;;;16.40;26.80;;;;;;5190209;28;20097;-66
2021/03/28 13:34:34;;;;;;;13.13;12.13;;;16.30;26.90;;;;;;5163587;28;20053;-67
2021/03/28 13:37:23;;;;;;;13.52;12.32;;;16.40;28.30;;;;;;5187784;28;20443;-67
2021/03/28 13:40:03;;;;;;;13.23;12.10;;;16.50;25.60;;;;;;5187496;28;20112;-70
2021/03/28 13:42:52;;;;;;;;;;;16.40;22.80;;;;;;5191329;28;20091;-67
2021/03/28 13:45:33;;;;;;;12.77;11.68;;;16.50;24.40;;;;;;5204142;28;19927;-66
2021/03/28 13:48:08;;;;;;;13.02;12.00;;;16.60;23.20;;;;;;5190006;28;20056;-67
2021/03/28 13:51:18;;;;;;;13.57;12.48;;;16.30;21.00;;;;;;5192187;28;20617;-67
2021/03/28 13:53:52;;;;;;;13.38;12.27;;;16.40;22.20;;;;;;5188644;28;20042;-66
2021/03/28 13:56:47;;;;;;;13.32;12.32;;;16.50;20.40;;;;;;5190640;28;20781;-66
2021/03/28 13:59:31;;;;;;;13.35;12.25;;;16.40;19.80;;;;;;5208958;28;20042;-68
2021/03/28 14:02:23;;;;;;;13.00;11.85;;;16.50;21.90;;;;;;5193933;28;20132;-66
2021/03/28 14:05:03;;;;;;;12.57;11.38;;;16.40;20.30;;;;;;5205175;28;20088;-67
2021/03/28 14:07:40;;;;;;;12.48;11.48;;;16.40;21.30;;;;;;5165119;28;20042;-67
2021/03/28 14:10:29;;;;;;;12.75;11.75;;;16.20;20.50;;;;;;5164919;28;20243;-67
2021/03/28 14:13:18;;;;;;;13.25;12.10;;;16.20;20.90;;;;;;5171150;28;20125;-69
2021/03/28 14:15:57;;;;;;;13.93;12.73;;;16.40;20.50;;;;;;5166644;28;20054;-68
2021/03/28 14:18:48;;;;;;;13.30;12.15;;;16.50;21.00;;;;;;5165346;28;20884;-68
2021/03/28 14:21:29;;;;;;;13.50;12.35;;;16.50;20.90;;;;;;5167381;28;20073;-68
2021/03/28 14:24:12;;;;;;;13.45;12.45;;;16.70;20.60;;;;;;5166934;28;20469;-67
2021/03/28 14:26:48;;;;;;;13.93;12.73;;;16.80;19.80;;;;;;5170297;28;20412;-67
2021/03/28 14:29:40;;;;;;;13.18;12.10;;;17.00;21.10;;;;;;5168675;28;20046;-69
2021/03/28 14:32:11;;;;;;;14.23;13.13;;;17.10;20.30;;;;;;5166312;28;20046;-69
2021/03/28 14:35:13;;;;;;;13.52;12.50;;;17.20;21.60;;;;;;5167801;28;20053;-68
2021/03/28 14:38:10;;;;;;;13.90;12.63;;;17.60;21.90;;;;;;5164020;28;20435;-67
2021/03/28 14:40:57;;;;;;;14.45;13.23;;;17.80;21.20;;;;;;5164508;28;20511;-68
2021/03/28 14:44:00;;;;;;;13.88;12.77;;;17.80;20.80;;;;;;5168685;28;20145;-69
2021/03/28 14:46:56;;;;;;;13.95;12.75;;;18.00;20.80;;;;;;5167621;28;20066;-69
2021/03/28 14:49:59;;;;;;;13.77;12.63;;;18.30;20.10;;;;;;5163304;28;20045;-68
2021/03/28 14:52:48;;;;;;;13.50;12.50;;;18.60;19.70;;;;;;5164326;28;20070;-69
2021/03/28 14:55:54;;;;;;;13.88;12.88;;;18.90;22.30;;;;;;5164720;28;20058;-69
2021/03/28 14:58:54;;;;;;;14.63;13.52;;;19.20;22.10;;;;;;5168998;28;20522;-68